Sodak Park, South Dakota
Current Conditions -  °F | °C
As of 8:14 AM on Monday 22 Dec 2014 (Local Time) from KVVV Reporting Station
Light Rain Light Rain  
Wind Chill: 27°   Ceiling: 400
Heat Index: 36°   Visibility: 3mi
Dew Point: 34°   Wind: 13mph
Humidity: 93%   Direction: 130°SE
Pressure: 29.48"   Gusts: NA
Location:  45.4152°N, 96.8664°W
Report Text: KVVV 221414Z AUTO 13011KT 3SM -RA OVC004 02/01 A2948 RMK AO2 P0001
Loading
Personal Weather Stations






























Interactive Weather Map New forecast layout! Learn more

10-Day Weather Forecast

Advertisements
Track Severe Weather on mobile